sensor_id;sensor_type;location;lat;lon;timestamp;P1;durP1;ratioP1;P2;durP2;ratioP2
9007;SDS011;62813;51.424;6.762;2022-11-02T00:02:09;9.27;;;2.43;;
9007;SDS011;62813;51.424;6.762;2022-11-02T00:04:36;10.17;;;2.57;;
9007;SDS011;62813;51.424;6.762;2022-11-02T00:07:02;11.07;;;3.20;;
9007;SDS011;62813;51.424;6.762;2022-11-02T00:09:29;10.63;;;2.60;;
9007;SDS011;62813;51.424;6.762;2022-11-02T00:11:55;9.20;;;2.37;;
9007;SDS011;62813;51.424;6.762;2022-11-02T00:14:22;13.03;;;2.60;;
9007;SDS011;62813;51.424;6.762;2022-11-02T00:16:48;8.07;;;2.33;;
9007;SDS011;62813;51.424;6.762;2022-11-02T00:19:15;9.97;;;2.53;;
9007;SDS011;62813;51.424;6.762;2022-11-02T00:21:41;11.37;;;2.63;;
9007;SDS011;62813;51.424;6.762;2022-11-02T00:24:08;10.93;;;2.73;;
9007;SDS011;62813;51.424;6.762;2022-11-02T00:26:37;10.30;;;2.23;;
9007;SDS011;62813;51.424;6.762;2022-11-02T00:29:04;10.90;;;2.33;;
9007;SDS011;62813;51.424;6.762;2022-11-02T00:31:32;8.97;;;2.67;;
9007;SDS011;62813;51.424;6.762;2022-11-02T00:33:58;13.13;;;2.70;;
9007;SDS011;62813;51.424;6.762;2022-11-02T00:36:25;14.50;;;2.30;;
9007;SDS011;62813;51.424;6.762;2022-11-02T00:38:53;9.27;;;2.17;;
9007;SDS011;62813;51.424;6.762;2022-11-02T00:41:19;15.23;;;2.40;;
9007;SDS011;62813;51.424;6.762;2022-11-02T00:43:46;8.00;;;2.00;;
9007;SDS011;62813;51.424;6.762;2022-11-02T00:46:13;8.77;;;2.50;;
9007;SDS011;62813;51.424;6.762;2022-11-02T00:48:39;7.43;;;2.03;;
9007;SDS011;62813;51.424;6.762;2022-11-02T00:51:06;7.50;;;2.30;;
9007;SDS011;62813;51.424;6.762;2022-11-02T00:53:32;11.30;;;2.30;;
9007;SDS011;62813;51.424;6.762;2022-11-02T00:55:59;8.67;;;2.27;;
9007;SDS011;62813;51.424;6.762;2022-11-02T00:58:25;6.30;;;1.77;;
9007;SDS011;62813;51.424;6.762;2022-11-02T01:00:52;9.73;;;2.40;;
9007;SDS011;62813;51.424;6.762;2022-11-02T01:03:18;10.53;;;2.30;;
9007;SDS011;62813;51.424;6.762;2022-11-02T01:05:45;13.07;;;2.57;;
9007;SDS011;62813;51.424;6.762;2022-11-02T01:08:11;7.87;;;2.20;;
9007;SDS011;62813;51.424;6.762;2022-11-02T01:10:38;13.20;;;2.47;;
9007;SDS011;62813;51.424;6.762;2022-11-02T01:13:10;15.40;;;2.73;;
9007;SDS011;62813;51.424;6.762;2022-11-02T01:15:37;7.17;;;2.23;;
9007;SDS011;62813;51.424;6.762;2022-11-02T01:18:03;9.37;;;2.10;;
9007;SDS011;62813;51.424;6.762;2022-11-02T01:20:31;11.63;;;2.20;;
9007;SDS011;62813;51.424;6.762;2022-11-02T01:22:57;7.10;;;2.10;;
9007;SDS011;62813;51.424;6.762;2022-11-02T01:25:24;10.43;;;2.13;;
9007;SDS011;62813;51.424;6.762;2022-11-02T01:27:51;9.70;;;2.60;;
9007;SDS011;62813;51.424;6.762;2022-11-02T01:30:17;10.43;;;2.10;;
9007;SDS011;62813;51.424;6.762;2022-11-02T01:32:44;7.30;;;1.93;;
9007;SDS011;62813;51.424;6.762;2022-11-02T01:35:11;11.43;;;2.70;;
9007;SDS011;62813;51.424;6.762;2022-11-02T01:37:37;10.20;;;2.50;;
9007;SDS011;62813;51.424;6.762;2022-11-02T01:40:04;11.13;;;2.83;;
9007;SDS011;62813;51.424;6.762;2022-11-02T01:42:31;6.57;;;1.90;;
9007;SDS011;62813;51.424;6.762;2022-11-02T01:44:58;10.57;;;2.33;;
9007;SDS011;62813;51.424;6.762;2022-11-02T01:47:26;8.93;;;1.90;;
9007;SDS011;62813;51.424;6.762;2022-11-02T01:49:57;13.50;;;2.30;;
9007;SDS011;62813;51.424;6.762;2022-11-02T01:52:33;10.83;;;2.67;;
9007;SDS011;62813;51.424;6.762;2022-11-02T01:57:50;9.43;;;3.43;;
9007;SDS011;62813;51.424;6.762;2022-11-02T02:00:38;15.20;;;3.27;;
9007;SDS011;62813;51.424;6.762;2022-11-02T02:03:09;16.57;;;4.77;;
9007;SDS011;62813;51.424;6.762;2022-11-02T02:05:39;19.07;;;4.87;;
9007;SDS011;62813;51.424;6.762;2022-11-02T02:08:12;13.20;;;4.67;;
9007;SDS011;62813;51.424;6.762;2022-11-02T02:10:43;10.47;;;3.87;;
9007;SDS011;62813;51.424;6.762;2022-11-02T02:13:09;9.53;;;3.50;;
9007;SDS011;62813;51.424;6.762;2022-11-02T02:15:42;10.70;;;3.00;;
9007;SDS011;62813;51.424;6.762;2022-11-02T02:18:42;9.80;;;2.80;;
9007;SDS011;62813;51.424;6.762;2022-11-02T02:21:24;10.57;;;2.27;;
9007;SDS011;62813;51.424;6.762;2022-11-02T02:32:03;11.73;;;2.87;;
9007;SDS011;62813;51.424;6.762;2022-11-02T02:34:48;9.13;;;2.43;;
9007;SDS011;62813;51.424;6.762;2022-11-02T02:39:56;6.73;;;1.90;;
9007;SDS011;62813;51.424;6.762;2022-11-02T02:43:01;8.40;;;2.53;;
9007;SDS011;62813;51.424;6.762;2022-11-02T02:45:33;9.43;;;2.37;;
9007;SDS011;62813;51.424;6.762;2022-11-02T02:48:11;11.23;;;2.40;;
9007;SDS011;62813;51.424;6.762;2022-11-02T02:50:47;13.57;;;2.47;;
9007;SDS011;62813;51.424;6.762;2022-11-02T02:53:18;8.33;;;2.03;;
9007;SDS011;62813;51.424;6.762;2022-11-02T02:55:48;12.10;;;2.93;;
9007;SDS011;62813;51.424;6.762;2022-11-02T02:58:20;9.40;;;2.70;;
9007;SDS011;62813;51.424;6.762;2022-11-02T03:00:50;8.80;;;2.27;;
9007;SDS011;62813;51.424;6.762;2022-11-02T03:03:22;12.07;;;2.90;;
9007;SDS011;62813;51.424;6.762;2022-11-02T03:06:33;13.53;;;3.33;;
9007;SDS011;62813;51.424;6.762;2022-11-02T03:08:57;11.43;;;3.23;;
9007;SDS011;62813;51.424;6.762;2022-11-02T03:11:38;18.30;;;4.37;;
9007;SDS011;62813;51.424;6.762;2022-11-02T03:22:29;12.03;;;3.70;;
9007;SDS011;62813;51.424;6.762;2022-11-02T03:30:34;11.40;;;2.60;;
9007;SDS011;62813;51.424;6.762;2022-11-02T03:33:10;10.00;;;2.73;;
9007;SDS011;62813;51.424;6.762;2022-11-02T03:36:20;8.63;;;2.10;;
9007;SDS011;62813;51.424;6.762;2022-11-02T03:38:49;12.93;;;2.60;;
9007;SDS011;62813;51.424;6.762;2022-11-02T03:41:21;9.37;;;2.40;;
9007;SDS011;62813;51.424;6.762;2022-11-02T03:43:50;9.37;;;2.33;;
9007;SDS011;62813;51.424;6.762;2022-11-02T03:46:22;8.00;;;2.23;;
9007;SDS011;62813;51.424;6.762;2022-11-02T03:48:49;12.63;;;2.97;;
9007;SDS011;62813;51.424;6.762;2022-11-02T03:51:19;10.90;;;2.40;;
9007;SDS011;62813;51.424;6.762;2022-11-02T03:56:31;7.30;;;2.00;;
9007;SDS011;62813;51.424;6.762;2022-11-02T03:59:03;15.67;;;2.70;;
9007;SDS011;62813;51.424;6.762;2022-11-02T04:01:30;12.20;;;2.70;;
9007;SDS011;62813;51.424;6.762;2022-11-02T04:04:04;11.10;;;2.03;;
9007;SDS011;62813;51.424;6.762;2022-11-02T04:06:31;9.67;;;2.47;;
9007;SDS011;62813;51.424;6.762;2022-11-02T04:08:58;6.23;;;1.80;;
9007;SDS011;62813;51.424;6.762;2022-11-02T04:11:25;11.00;;;2.30;;
9007;SDS011;62813;51.424;6.762;2022-11-02T04:14:11;9.60;;;2.37;;
9007;SDS011;62813;51.424;6.762;2022-11-02T04:17:08;10.27;;;2.33;;
9007;SDS011;62813;51.424;6.762;2022-11-02T04:19:56;7.73;;;2.30;;
9007;SDS011;62813;51.424;6.762;2022-11-02T04:22:22;8.70;;;2.50;;
9007;SDS011;62813;51.424;6.762;2022-11-02T04:25:15;8.83;;;2.57;;
9007;SDS011;62813;51.424;6.762;2022-11-02T04:27:50;9.40;;;2.40;;
9007;SDS011;62813;51.424;6.762;2022-11-02T04:30:18;6.40;;;2.37;;
9007;SDS011;62813;51.424;6.762;2022-11-02T04:32:47;7.80;;;2.23;;
9007;SDS011;62813;51.424;6.762;2022-11-02T04:35:34;11.47;;;2.07;;
9007;SDS011;62813;51.424;6.762;2022-11-02T04:38:01;9.60;;;2.23;;
9007;SDS011;62813;51.424;6.762;2022-11-02T04:40:47;6.80;;;1.80;;
9007;SDS011;62813;51.424;6.762;2022-11-02T04:43:13;9.10;;;2.27;;
9007;SDS011;62813;51.424;6.762;2022-11-02T04:45:40;9.23;;;2.53;;
9007;SDS011;62813;51.424;6.762;2022-11-02T04:48:07;8.00;;;2.17;;
9007;SDS011;62813;51.424;6.762;2022-11-02T04:50:35;8.93;;;2.00;;
9007;SDS011;62813;51.424;6.762;2022-11-02T04:53:03;8.00;;;2.03;;
9007;SDS011;62813;51.424;6.762;2022-11-02T04:55:32;10.90;;;2.30;;
9007;SDS011;62813;51.424;6.762;2022-11-02T04:57:59;10.93;;;1.93;;
9007;SDS011;62813;51.424;6.762;2022-11-02T05:00:26;7.90;;;2.33;;
9007;SDS011;62813;51.424;6.762;2022-11-02T05:02:52;11.20;;;2.13;;
9007;SDS011;62813;51.424;6.762;2022-11-02T05:05:19;9.90;;;2.23;;
9007;SDS011;62813;51.424;6.762;2022-11-02T05:07:46;10.07;;;1.90;;
9007;SDS011;62813;51.424;6.762;2022-11-02T05:10:12;9.07;;;2.00;;
9007;SDS011;62813;51.424;6.762;2022-11-02T05:12:39;10.93;;;2.30;;
9007;SDS011;62813;51.424;6.762;2022-11-02T05:15:06;11.07;;;2.07;;
9007;SDS011;62813;51.424;6.762;2022-11-02T05:17:33;7.07;;;2.13;;
9007;SDS011;62813;51.424;6.762;2022-11-02T05:20:00;11.00;;;2.10;;
9007;SDS011;62813;51.424;6.762;2022-11-02T05:22:27;8.53;;;2.10;;
9007;SDS011;62813;51.424;6.762;2022-11-02T05:24:54;8.00;;;2.33;;
9007;SDS011;62813;51.424;6.762;2022-11-02T05:27:20;8.60;;;2.30;;
9007;SDS011;62813;51.424;6.762;2022-11-02T05:29:47;9.50;;;1.97;;
9007;SDS011;62813;51.424;6.762;2022-11-02T05:32:13;8.20;;;2.13;;
9007;SDS011;62813;51.424;6.762;2022-11-02T05:34:40;10.73;;;2.00;;
9007;SDS011;62813;51.424;6.762;2022-11-02T05:37:06;6.50;;;1.87;;
9007;SDS011;62813;51.424;6.762;2022-11-02T05:39:33;12.40;;;2.57;;
9007;SDS011;62813;51.424;6.762;2022-11-02T05:41:59;8.63;;;1.93;;
9007;SDS011;62813;51.424;6.762;2022-11-02T05:44:26;8.10;;;2.17;;
9007;SDS011;62813;51.424;6.762;2022-11-02T05:46:53;10.53;;;2.23;;
9007;SDS011;62813;51.424;6.762;2022-11-02T05:49:19;13.83;;;2.77;;
9007;SDS011;62813;51.424;6.762;2022-11-02T05:51:46;7.83;;;2.10;;
9007;SDS011;62813;51.424;6.762;2022-11-02T05:54:12;11.33;;;2.10;;
9007;SDS011;62813;51.424;6.762;2022-11-02T05:56:41;8.50;;;2.00;;
9007;SDS011;62813;51.424;6.762;2022-11-02T05:59:08;8.10;;;2.17;;
9007;SDS011;62813;51.424;6.762;2022-11-02T06:01:35;14.93;;;2.43;;
9007;SDS011;62813;51.424;6.762;2022-11-02T06:04:02;13.73;;;2.73;;
9007;SDS011;62813;51.424;6.762;2022-11-02T06:06:28;9.57;;;2.03;;
9007;SDS011;62813;51.424;6.762;2022-11-02T06:08:55;10.17;;;2.63;;
9007;SDS011;62813;51.424;6.762;2022-11-02T06:11:21;13.10;;;2.20;;
9007;SDS011;62813;51.424;6.762;2022-11-02T06:13:49;8.43;;;2.30;;
9007;SDS011;62813;51.424;6.762;2022-11-02T06:16:16;9.53;;;2.33;;
9007;SDS011;62813;51.424;6.762;2022-11-02T06:18:48;13.00;;;2.47;;
9007;SDS011;62813;51.424;6.762;2022-11-02T06:21:15;11.20;;;2.50;;
9007;SDS011;62813;51.424;6.762;2022-11-02T06:23:41;11.97;;;2.73;;
9007;SDS011;62813;51.424;6.762;2022-11-02T06:26:08;10.83;;;2.20;;
9007;SDS011;62813;51.424;6.762;2022-11-02T06:28:36;9.70;;;2.30;;
9007;SDS011;62813;51.424;6.762;2022-11-02T06:31:03;7.80;;;2.10;;
9007;SDS011;62813;51.424;6.762;2022-11-02T06:33:29;9.77;;;2.30;;
9007;SDS011;62813;51.424;6.762;2022-11-02T06:35:56;6.87;;;1.90;;
9007;SDS011;62813;51.424;6.762;2022-11-02T06:38:23;9.87;;;2.17;;
9007;SDS011;62813;51.424;6.762;2022-11-02T06:40:57;8.37;;;2.50;;
9007;SDS011;62813;51.424;6.762;2022-11-02T06:43:29;10.93;;;2.53;;
9007;SDS011;62813;51.424;6.762;2022-11-02T06:45:56;10.03;;;2.90;;
9007;SDS011;62813;51.424;6.762;2022-11-02T06:48:24;9.77;;;2.60;;
9007;SDS011;62813;51.424;6.762;2022-11-02T06:50:59;8.90;;;2.43;;
9007;SDS011;62813;51.424;6.762;2022-11-02T06:53:26;11.50;;;2.77;;
9007;SDS011;62813;51.424;6.762;2022-11-02T06:55:53;9.90;;;2.50;;
9007;SDS011;62813;51.424;6.762;2022-11-02T06:58:21;12.33;;;2.80;;
9007;SDS011;62813;51.424;6.762;2022-11-02T07:00:49;8.07;;;2.30;;
9007;SDS011;62813;51.424;6.762;2022-11-02T07:03:16;10.17;;;2.30;;
9007;SDS011;62813;51.424;6.762;2022-11-02T07:05:48;9.90;;;2.87;;
9007;SDS011;62813;51.424;6.762;2022-11-02T07:08:16;11.67;;;2.80;;
9007;SDS011;62813;51.424;6.762;2022-11-02T07:10:43;9.00;;;2.17;;
9007;SDS011;62813;51.424;6.762;2022-11-02T07:13:10;7.83;;;2.40;;
9007;SDS011;62813;51.424;6.762;2022-11-02T07:15:37;11.07;;;2.10;;
9007;SDS011;62813;51.424;6.762;2022-11-02T07:18:05;7.17;;;2.20;;
9007;SDS011;62813;51.424;6.762;2022-11-02T07:20:32;10.83;;;2.83;;
9007;SDS011;62813;51.424;6.762;2022-11-02T07:22:59;9.23;;;2.33;;
9007;SDS011;62813;51.424;6.762;2022-11-02T07:25:27;11.13;;;2.00;;
9007;SDS011;62813;51.424;6.762;2022-11-02T07:27:58;10.53;;;2.90;;
9007;SDS011;62813;51.424;6.762;2022-11-02T07:30:30;10.63;;;3.07;;
9007;SDS011;62813;51.424;6.762;2022-11-02T07:32:58;11.63;;;2.73;;
9007;SDS011;62813;51.424;6.762;2022-11-02T07:35:25;10.13;;;2.53;;
9007;SDS011;62813;51.424;6.762;2022-11-02T07:38:10;10.83;;;2.80;;
9007;SDS011;62813;51.424;6.762;2022-11-02T07:40:36;10.07;;;2.63;;
9007;SDS011;62813;51.424;6.762;2022-11-02T07:43:04;8.23;;;2.40;;
9007;SDS011;62813;51.424;6.762;2022-11-02T07:45:32;11.60;;;2.63;;
9007;SDS011;62813;51.424;6.762;2022-11-02T07:47:58;11.60;;;2.30;;
9007;SDS011;62813;51.424;6.762;2022-11-02T07:50:26;8.57;;;2.13;;
9007;SDS011;62813;51.424;6.762;2022-11-02T07:52:56;8.77;;;2.13;;
9007;SDS011;62813;51.424;6.762;2022-11-02T07:55:24;9.97;;;2.27;;
9007;SDS011;62813;51.424;6.762;2022-11-02T08:00:28;12.03;;;2.80;;
9007;SDS011;62813;51.424;6.762;2022-11-02T08:02:57;11.03;;;2.57;;
9007;SDS011;62813;51.424;6.762;2022-11-02T08:05:25;10.83;;;2.27;;
9007;SDS011;62813;51.424;6.762;2022-11-02T08:07:59;11.63;;;2.33;;
9007;SDS011;62813;51.424;6.762;2022-11-02T08:10:31;8.93;;;2.13;;
9007;SDS011;62813;51.424;6.762;2022-11-02T08:13:05;10.90;;;2.73;;
9007;SDS011;62813;51.424;6.762;2022-11-02T08:15:33;15.23;;;2.27;;
9007;SDS011;62813;51.424;6.762;2022-11-02T08:18:01;11.87;;;2.47;;
9007;SDS011;62813;51.424;6.762;2022-11-02T08:20:39;15.83;;;2.70;;
9007;SDS011;62813;51.424;6.762;2022-11-02T08:23:08;10.17;;;2.40;;
9007;SDS011;62813;51.424;6.762;2022-11-02T08:25:36;12.77;;;2.30;;
9007;SDS011;62813;51.424;6.762;2022-11-02T08:28:04;11.63;;;2.70;;
9007;SDS011;62813;51.424;6.762;2022-11-02T08:30:32;11.90;;;2.37;;
9007;SDS011;62813;51.424;6.762;2022-11-02T08:33:17;8.00;;;2.37;;
9007;SDS011;62813;51.424;6.762;2022-11-02T08:35:45;11.83;;;2.37;;
9007;SDS011;62813;51.424;6.762;2022-11-02T08:38:13;13.40;;;2.40;;
9007;SDS011;62813;51.424;6.762;2022-11-02T08:40:40;17.20;;;2.67;;
9007;SDS011;62813;51.424;6.762;2022-11-02T08:43:11;9.93;;;2.50;;
9007;SDS011;62813;51.424;6.762;2022-11-02T08:45:40;12.80;;;2.27;;
9007;SDS011;62813;51.424;6.762;2022-11-02T08:48:28;11.50;;;2.40;;
9007;SDS011;62813;51.424;6.762;2022-11-02T08:50:57;15.90;;;2.90;;
9007;SDS011;62813;51.424;6.762;2022-11-02T08:53:24;10.00;;;2.10;;
9007;SDS011;62813;51.424;6.762;2022-11-02T08:55:51;9.53;;;2.27;;
9007;SDS011;62813;51.424;6.762;2022-11-02T08:58:18;9.10;;;2.37;;
9007;SDS011;62813;51.424;6.762;2022-11-02T09:00:45;11.80;;;2.70;;
9007;SDS011;62813;51.424;6.762;2022-11-02T09:03:12;12.57;;;2.63;;
9007;SDS011;62813;51.424;6.762;2022-11-02T09:05:41;11.80;;;2.50;;
9007;SDS011;62813;51.424;6.762;2022-11-02T09:08:13;6.23;;;2.20;;
9007;SDS011;62813;51.424;6.762;2022-11-02T09:10:42;9.87;;;2.93;;
9007;SDS011;62813;51.424;6.762;2022-11-02T09:13:10;10.03;;;2.70;;
9007;SDS011;62813;51.424;6.762;2022-11-02T09:15:38;14.07;;;2.87;;
9007;SDS011;62813;51.424;6.762;2022-11-02T09:18:05;13.50;;;2.20;;
9007;SDS011;62813;51.424;6.762;2022-11-02T09:20:33;11.13;;;2.50;;
9007;SDS011;62813;51.424;6.762;2022-11-02T09:23:00;14.17;;;2.60;;
9007;SDS011;62813;51.424;6.762;2022-11-02T09:25:27;11.90;;;2.30;;
9007;SDS011;62813;51.424;6.762;2022-11-02T09:27:54;17.17;;;3.50;;
9007;SDS011;62813;51.424;6.762;2022-11-02T09:30:22;18.33;;;2.60;;
9007;SDS011;62813;51.424;6.762;2022-11-02T09:35:25;16.87;;;2.63;;
9007;SDS011;62813;51.424;6.762;2022-11-02T09:37:53;10.70;;;2.53;;
9007;SDS011;62813;51.424;6.762;2022-11-02T09:40:20;13.63;;;2.80;;
9007;SDS011;62813;51.424;6.762;2022-11-02T09:46:00;19.77;;;2.60;;
9007;SDS011;62813;51.424;6.762;2022-11-02T09:48:39;8.80;;;2.43;;
9007;SDS011;62813;51.424;6.762;2022-11-02T09:51:07;11.13;;;2.43;;
9007;SDS011;62813;51.424;6.762;2022-11-02T09:53:49;13.83;;;2.30;;
9007;SDS011;62813;51.424;6.762;2022-11-02T09:56:31;11.97;;;2.40;;
9007;SDS011;62813;51.424;6.762;2022-11-02T09:59:00;11.63;;;2.47;;
9007;SDS011;62813;51.424;6.762;2022-11-02T10:06:56;11.97;;;2.23;;
9007;SDS011;62813;51.424;6.762;2022-11-02T10:15:18;9.73;;;2.50;;
9007;SDS011;62813;51.424;6.762;2022-11-02T10:17:49;9.13;;;2.20;;
9007;SDS011;62813;51.424;6.762;2022-11-02T10:20:24;7.23;;;2.40;;
9007;SDS011;62813;51.424;6.762;2022-11-02T10:23:07;9.63;;;2.30;;
9007;SDS011;62813;51.424;6.762;2022-11-02T10:25:37;7.40;;;2.00;;
9007;SDS011;62813;51.424;6.762;2022-11-02T10:28:08;9.97;;;2.60;;
9007;SDS011;62813;51.424;6.762;2022-11-02T10:30:41;8.97;;;2.30;;
9007;SDS011;62813;51.424;6.762;2022-11-02T10:33:11;8.50;;;1.90;;
9007;SDS011;62813;51.424;6.762;2022-11-02T10:38:33;11.17;;;2.73;;
9007;SDS011;62813;51.424;6.762;2022-11-02T10:46:36;8.60;;;1.97;;
9007;SDS011;62813;51.424;6.762;2022-11-02T10:49:12;14.20;;;2.60;;
9007;SDS011;62813;51.424;6.762;2022-11-02T10:51:41;13.20;;;1.90;;
9007;SDS011;62813;51.424;6.762;2022-11-02T10:54:12;9.50;;;2.50;;
9007;SDS011;62813;51.424;6.762;2022-11-02T10:56:46;8.13;;;2.33;;
9007;SDS011;62813;51.424;6.762;2022-11-02T10:59:17;9.20;;;2.57;;
9007;SDS011;62813;51.424;6.762;2022-11-02T11:04:23;6.27;;;1.77;;
9007;SDS011;62813;51.424;6.762;2022-11-02T11:06:51;7.47;;;2.10;;
9007;SDS011;62813;51.424;6.762;2022-11-02T11:09:20;12.87;;;2.40;;
9007;SDS011;62813;51.424;6.762;2022-11-02T11:12:00;11.97;;;2.73;;
9007;SDS011;62813;51.424;6.762;2022-11-02T11:14:29;11.07;;;2.60;;
9007;SDS011;62813;51.424;6.762;2022-11-02T11:17:28;9.27;;;2.17;;
9007;SDS011;62813;51.424;6.762;2022-11-02T11:25:41;11.33;;;2.13;;
9007;SDS011;62813;51.424;6.762;2022-11-02T11:31:14;8.13;;;1.93;;
9007;SDS011;62813;51.424;6.762;2022-11-02T11:33:44;7.47;;;2.10;;
9007;SDS011;62813;51.424;6.762;2022-11-02T11:36:24;7.33;;;2.10;;
9007;SDS011;62813;51.424;6.762;2022-11-02T11:38:57;8.03;;;2.10;;
9007;SDS011;62813;51.424;6.762;2022-11-02T11:41:29;8.73;;;2.00;;
9007;SDS011;62813;51.424;6.762;2022-11-02T11:43:58;9.60;;;2.40;;
9007;SDS011;62813;51.424;6.762;2022-11-02T11:46:39;9.33;;;2.00;;
9007;SDS011;62813;51.424;6.762;2022-11-02T11:49:22;8.50;;;2.10;;
9007;SDS011;62813;51.424;6.762;2022-11-02T11:52:14;9.90;;;2.23;;
9007;SDS011;62813;51.424;6.762;2022-11-02T11:55:18;10.73;;;2.00;;
9007;SDS011;62813;51.424;6.762;2022-11-02T11:57:45;9.30;;;2.00;;
9007;SDS011;62813;51.424;6.762;2022-11-02T12:00:25;11.67;;;2.20;;
9007;SDS011;62813;51.424;6.762;2022-11-02T12:03:00;10.73;;;1.90;;
9007;SDS011;62813;51.424;6.762;2022-11-02T12:17:35;8.13;;;2.20;;
9007;SDS011;62813;51.424;6.762;2022-11-02T12:23:08;11.57;;;2.40;;
9007;SDS011;62813;51.424;6.762;2022-11-02T12:37:03;14.60;;;2.53;;
9007;SDS011;62813;51.424;6.762;2022-11-02T12:50:58;15.93;;;2.83;;
9007;SDS011;62813;51.424;6.762;2022-11-02T12:53:41;11.90;;;2.43;;
9007;SDS011;62813;51.424;6.762;2022-11-02T12:56:18;13.87;;;2.80;;
9007;SDS011;62813;51.424;6.762;2022-11-02T12:58:50;14.53;;;3.20;;
9007;SDS011;62813;51.424;6.762;2022-11-02T13:01:22;15.57;;;3.00;;
9007;SDS011;62813;51.424;6.762;2022-11-02T13:03:58;12.37;;;2.70;;
9007;SDS011;62813;51.424;6.762;2022-11-02T13:06:34;10.07;;;2.50;;
9007;SDS011;62813;51.424;6.762;2022-11-02T13:09:12;13.47;;;2.70;;
9007;SDS011;62813;51.424;6.762;2022-11-02T13:11:47;10.83;;;2.13;;
9007;SDS011;62813;51.424;6.762;2022-11-02T13:14:19;8.40;;;2.47;;
9007;SDS011;62813;51.424;6.762;2022-11-02T13:16:56;9.07;;;2.30;;
9007;SDS011;62813;51.424;6.762;2022-11-02T13:19:32;10.73;;;2.80;;
9007;SDS011;62813;51.424;6.762;2022-11-02T13:22:04;12.60;;;2.30;;
9007;SDS011;62813;51.424;6.762;2022-11-02T13:24:38;12.43;;;2.20;;
9007;SDS011;62813;51.424;6.762;2022-11-02T13:27:19;9.47;;;2.00;;
9007;SDS011;62813;51.424;6.762;2022-11-02T13:30:03;11.57;;;2.80;;
9007;SDS011;62813;51.424;6.762;2022-11-02T13:32:39;9.23;;;2.47;;
9007;SDS011;62813;51.424;6.762;2022-11-02T13:37:56;8.30;;;2.57;;
9007;SDS011;62813;51.424;6.762;2022-11-02T13:41:05;8.20;;;2.97;;
9007;SDS011;62813;51.424;6.762;2022-11-02T13:46:27;14.60;;;3.30;;
9007;SDS011;62813;51.424;6.762;2022-11-02T13:49:11;14.93;;;2.73;;
9007;SDS011;62813;51.424;6.762;2022-11-02T13:51:44;10.43;;;3.00;;
9007;SDS011;62813;51.424;6.762;2022-11-02T13:54:18;12.47;;;3.10;;
9007;SDS011;62813;51.424;6.762;2022-11-02T13:56:52;9.90;;;2.50;;
9007;SDS011;62813;51.424;6.762;2022-11-02T13:59:24;12.37;;;2.30;;
9007;SDS011;62813;51.424;6.762;2022-11-02T14:01:56;15.47;;;3.10;;
9007;SDS011;62813;51.424;6.762;2022-11-02T14:04:25;8.87;;;2.67;;
9007;SDS011;62813;51.424;6.762;2022-11-02T14:06:57;11.60;;;2.67;;
9007;SDS011;62813;51.424;6.762;2022-11-02T14:09:47;9.83;;;2.57;;
9007;SDS011;62813;51.424;6.762;2022-11-02T14:18:40;8.23;;;2.60;;
9007;SDS011;62813;51.424;6.762;2022-11-02T14:30:48;12.27;;;2.70;;
9007;SDS011;62813;51.424;6.762;2022-11-02T14:38:55;13.83;;;2.70;;
9007;SDS011;62813;51.424;6.762;2022-11-02T14:41:54;10.33;;;2.40;;
9007;SDS011;62813;51.424;6.762;2022-11-02T14:46:55;14.33;;;3.30;;
9007;SDS011;62813;51.424;6.762;2022-11-02T14:49:30;12.47;;;4.20;;
9007;SDS011;62813;51.424;6.762;2022-11-02T14:52:01;13.67;;;3.20;;
9007;SDS011;62813;51.424;6.762;2022-11-02T14:54:53;14.47;;;3.63;;
9007;SDS011;62813;51.424;6.762;2022-11-02T14:57:35;12.53;;;4.27;;
9007;SDS011;62813;51.424;6.762;2022-11-02T15:00:21;10.50;;;3.77;;
9007;SDS011;62813;51.424;6.762;2022-11-02T15:02:49;12.53;;;3.33;;
9007;SDS011;62813;51.424;6.762;2022-11-02T15:05:21;15.07;;;3.40;;
9007;SDS011;62813;51.424;6.762;2022-11-02T15:07:53;12.87;;;3.10;;
9007;SDS011;62813;51.424;6.762;2022-11-02T15:18:31;13.53;;;3.03;;
9007;SDS011;62813;51.424;6.762;2022-11-02T15:29:19;11.43;;;3.00;;
9007;SDS011;62813;51.424;6.762;2022-11-02T15:31:56;9.67;;;2.70;;
9007;SDS011;62813;51.424;6.762;2022-11-02T15:34:27;14.07;;;2.90;;
9007;SDS011;62813;51.424;6.762;2022-11-02T15:37:00;12.47;;;2.50;;
9007;SDS011;62813;51.424;6.762;2022-11-02T15:39:29;9.63;;;2.47;;
9007;SDS011;62813;51.424;6.762;2022-11-02T15:42:10;9.73;;;2.20;;
9007;SDS011;62813;51.424;6.762;2022-11-02T15:50:41;14.53;;;2.53;;
9007;SDS011;62813;51.424;6.762;2022-11-02T15:56:17;11.77;;;2.63;;
9007;SDS011;62813;51.424;6.762;2022-11-02T15:59:15;11.37;;;2.43;;
9007;SDS011;62813;51.424;6.762;2022-11-02T16:01:46;13.20;;;2.47;;
9007;SDS011;62813;51.424;6.762;2022-11-02T16:04:33;11.47;;;2.47;;
9007;SDS011;62813;51.424;6.762;2022-11-02T16:07:04;12.63;;;2.97;;
9007;SDS011;62813;51.424;6.762;2022-11-02T16:14:49;9.60;;;3.03;;
9007;SDS011;62813;51.424;6.762;2022-11-02T16:17:30;14.93;;;3.77;;
9007;SDS011;62813;51.424;6.762;2022-11-02T16:22:39;7.43;;;2.60;;
9007;SDS011;62813;51.424;6.762;2022-11-02T16:25:07;12.33;;;3.10;;
9007;SDS011;62813;51.424;6.762;2022-11-02T16:27:39;9.33;;;2.60;;
9007;SDS011;62813;51.424;6.762;2022-11-02T16:30:06;13.47;;;3.30;;
9007;SDS011;62813;51.424;6.762;2022-11-02T16:32:42;12.73;;;3.30;;
9007;SDS011;62813;51.424;6.762;2022-11-02T16:35:13;13.47;;;2.90;;
9007;SDS011;62813;51.424;6.762;2022-11-02T16:37:42;9.73;;;3.17;;
9007;SDS011;62813;51.424;6.762;2022-11-02T16:40:18;10.87;;;3.20;;
9007;SDS011;62813;51.424;6.762;2022-11-02T16:42:47;12.20;;;3.40;;
9007;SDS011;62813;51.424;6.762;2022-11-02T16:45:34;12.90;;;3.67;;
9007;SDS011;62813;51.424;6.762;2022-11-02T16:51:04;10.27;;;3.47;;
9007;SDS011;62813;51.424;6.762;2022-11-02T16:53:40;13.10;;;2.87;;
9007;SDS011;62813;51.424;6.762;2022-11-02T16:59:03;13.37;;;3.60;;
9007;SDS011;62813;51.424;6.762;2022-11-02T17:01:34;9.93;;;2.30;;
9007;SDS011;62813;51.424;6.762;2022-11-02T17:06:48;11.77;;;2.70;;
9007;SDS011;62813;51.424;6.762;2022-11-02T17:09:20;9.27;;;2.40;;
9007;SDS011;62813;51.424;6.762;2022-11-02T17:11:53;13.40;;;3.13;;
9007;SDS011;62813;51.424;6.762;2022-11-02T17:14:23;11.10;;;2.97;;
9007;SDS011;62813;51.424;6.762;2022-11-02T17:22:14;8.10;;;2.57;;
9007;SDS011;62813;51.424;6.762;2022-11-02T17:24:46;13.23;;;3.00;;
9007;SDS011;62813;51.424;6.762;2022-11-02T17:27:17;12.50;;;2.80;;
9007;SDS011;62813;51.424;6.762;2022-11-02T17:29:51;9.97;;;2.87;;
9007;SDS011;62813;51.424;6.762;2022-11-02T17:32:22;19.00;;;3.40;;
9007;SDS011;62813;51.424;6.762;2022-11-02T17:37:33;12.67;;;3.40;;
9007;SDS011;62813;51.424;6.762;2022-11-02T17:40:00;10.43;;;2.87;;
9007;SDS011;62813;51.424;6.762;2022-11-02T17:42:27;6.47;;;2.37;;
9007;SDS011;62813;51.424;6.762;2022-11-02T17:47:45;8.33;;;2.60;;
9007;SDS011;62813;51.424;6.762;2022-11-02T17:50:12;6.27;;;2.20;;
9007;SDS011;62813;51.424;6.762;2022-11-02T17:52:39;9.93;;;2.40;;
9007;SDS011;62813;51.424;6.762;2022-11-02T17:55:06;9.57;;;2.33;;
9007;SDS011;62813;51.424;6.762;2022-11-02T17:57:39;9.40;;;2.70;;
9007;SDS011;62813;51.424;6.762;2022-11-02T18:00:05;8.23;;;2.37;;
9007;SDS011;62813;51.424;6.762;2022-11-02T18:02:33;8.07;;;2.53;;
9007;SDS011;62813;51.424;6.762;2022-11-02T18:04:59;9.53;;;2.33;;
9007;SDS011;62813;51.424;6.762;2022-11-02T18:07:26;11.77;;;2.53;;
9007;SDS011;62813;51.424;6.762;2022-11-02T18:09:52;10.63;;;2.63;;
9007;SDS011;62813;51.424;6.762;2022-11-02T18:12:19;8.20;;;2.33;;
9007;SDS011;62813;51.424;6.762;2022-11-02T18:14:46;7.50;;;2.33;;
9007;SDS011;62813;51.424;6.762;2022-11-02T18:17:12;7.23;;;2.00;;
9007;SDS011;62813;51.424;6.762;2022-11-02T18:19:39;6.10;;;2.20;;
9007;SDS011;62813;51.424;6.762;2022-11-02T18:22:05;6.13;;;2.07;;
9007;SDS011;62813;51.424;6.762;2022-11-02T18:24:34;9.40;;;2.40;;
9007;SDS011;62813;51.424;6.762;2022-11-02T18:27:01;8.13;;;2.57;;
9007;SDS011;62813;51.424;6.762;2022-11-02T18:29:27;8.67;;;2.17;;